sensor_id;sensor_type;location;lat;lon;timestamp;noise_LAeq;noise_LA_min;noise_LA_max;noise_LA01;noise_LA95
72858;Laerm;61360;52.134;4.494;2022-08-01T00:01:47;46.03;41.06;53.28;;
72858;Laerm;61360;52.134;4.494;2022-08-01T00:04:14;44.83;40.39;52.89;;
72858;Laerm;61360;52.134;4.494;2022-08-01T00:06:40;45.04;40.89;53.03;;
72858;Laerm;61360;52.134;4.494;2022-08-01T00:09:07;45.14;41.29;52.71;;
72858;Laerm;61360;52.134;4.494;2022-08-01T00:11:33;45.79;41.19;53.11;;
72858;Laerm;61360;52.134;4.494;2022-08-01T00:14:00;45.75;40.57;53.39;;
72858;Laerm;61360;52.134;4.494;2022-08-01T00:16:27;45.47;40.50;53.10;;
72858;Laerm;61360;52.134;4.494;2022-08-01T00:18:54;45.82;41.58;53.62;;
72858;Laerm;61360;52.134;4.494;2022-08-01T00:21:21;46.40;41.54;53.25;;
72858;Laerm;61360;52.134;4.494;2022-08-01T00:23:48;46.98;42.35;53.43;;
72858;Laerm;61360;52.134;4.494;2022-08-01T00:26:15;46.50;42.03;53.30;;
72858;Laerm;61360;52.134;4.494;2022-08-01T00:28:41;47.15;41.89;53.48;;
72858;Laerm;61360;52.134;4.494;2022-08-01T00:31:08;47.14;42.88;53.27;;
72858;Laerm;61360;52.134;4.494;2022-08-01T00:33:34;46.56;42.48;53.56;;
72858;Laerm;61360;52.134;4.494;2022-08-01T00:36:01;46.96;42.51;53.54;;
72858;Laerm;61360;52.134;4.494;2022-08-01T00:38:27;46.64;42.84;53.21;;
72858;Laerm;61360;52.134;4.494;2022-08-01T00:40:54;46.37;42.35;53.32;;
72858;Laerm;61360;52.134;4.494;2022-08-01T00:43:21;45.88;42.52;53.15;;
72858;Laerm;61360;52.134;4.494;2022-08-01T00:45:47;46.29;42.88;54.10;;
72858;Laerm;61360;52.134;4.494;2022-08-01T00:48:14;46.14;42.69;53.32;;
72858;Laerm;61360;52.134;4.494;2022-08-01T00:50:42;46.48;42.47;53.49;;
72858;Laerm;61360;52.134;4.494;2022-08-01T00:53:08;45.53;41.74;53.11;;
72858;Laerm;61360;52.134;4.494;2022-08-01T00:55:35;45.84;42.52;52.97;;
72858;Laerm;61360;52.134;4.494;2022-08-01T00:58:02;46.40;43.31;53.92;;
72858;Laerm;61360;52.134;4.494;2022-08-01T01:00:28;45.47;41.77;53.04;;
72858;Laerm;61360;52.134;4.494;2022-08-01T01:02:55;46.23;42.50;52.82;;
72858;Laerm;61360;52.134;4.494;2022-08-01T01:05:21;46.42;42.56;53.71;;
72858;Laerm;61360;52.134;4.494;2022-08-01T01:07:59;46.95;43.47;53.08;;
72858;Laerm;61360;52.134;4.494;2022-08-01T01:10:44;46.80;43.07;52.89;;
72858;Laerm;61360;52.134;4.494;2022-08-01T01:13:38;46.87;43.41;53.37;;
72858;Laerm;61360;52.134;4.494;2022-08-01T01:16:19;46.43;42.40;53.36;;
72858;Laerm;61360;52.134;4.494;2022-08-01T01:18:55;47.14;43.21;53.37;;
72858;Laerm;61360;52.134;4.494;2022-08-01T01:29:51;46.58;42.98;53.74;;
72858;Laerm;61360;52.134;4.494;2022-08-01T01:32:30;46.14;42.04;53.28;;
72858;Laerm;61360;52.134;4.494;2022-08-01T01:35:06;45.02;40.36;52.49;;
72858;Laerm;61360;52.134;4.494;2022-08-01T01:37:38;44.41;40.90;51.94;;
72858;Laerm;61360;52.134;4.494;2022-08-01T01:40:09;45.00;41.88;52.09;;
72858;Laerm;61360;52.134;4.494;2022-08-01T01:42:38;45.24;41.46;53.05;;
72858;Laerm;61360;52.134;4.494;2022-08-01T01:45:07;45.12;41.07;51.76;;
72858;Laerm;61360;52.134;4.494;2022-08-01T01:47:36;44.55;41.50;51.62;;
72858;Laerm;61360;52.134;4.494;2022-08-01T01:50:05;44.07;40.56;51.86;;
72858;Laerm;61360;52.134;4.494;2022-08-01T01:52:36;44.67;41.71;52.23;;
72858;Laerm;61360;52.134;4.494;2022-08-01T01:55:07;45.01;41.33;51.51;;
72858;Laerm;61360;52.134;4.494;2022-08-01T01:57:41;44.61;41.21;51.55;;
72858;Laerm;61360;52.134;4.494;2022-08-01T02:00:12;44.71;41.28;52.72;;
72858;Laerm;61360;52.134;4.494;2022-08-01T02:02:41;44.38;41.04;53.02;;
72858;Laerm;61360;52.134;4.494;2022-08-01T02:05:12;44.27;40.67;51.29;;
72858;Laerm;61360;52.134;4.494;2022-08-01T02:07:40;44.64;41.29;51.64;;
72858;Laerm;61360;52.134;4.494;2022-08-01T02:10:10;44.67;40.82;52.36;;
72858;Laerm;61360;52.134;4.494;2022-08-01T02:12:42;44.98;41.63;52.01;;
72858;Laerm;61360;52.134;4.494;2022-08-01T02:15:13;44.82;41.18;52.06;;
72858;Laerm;61360;52.134;4.494;2022-08-01T02:17:45;44.19;40.90;52.24;;
72858;Laerm;61360;52.134;4.494;2022-08-01T02:20:13;44.59;41.12;52.52;;
72858;Laerm;61360;52.134;4.494;2022-08-01T02:23:06;44.49;41.43;53.70;;
72858;Laerm;61360;52.134;4.494;2022-08-01T02:25:44;44.31;40.78;51.65;;
72858;Laerm;61360;52.134;4.494;2022-08-01T02:30:48;44.26;41.21;53.34;;
72858;Laerm;61360;52.134;4.494;2022-08-01T02:33:34;44.65;40.58;52.12;;
72858;Laerm;61360;52.134;4.494;2022-08-01T02:36:04;44.44;41.01;56.02;;
72858;Laerm;61360;52.134;4.494;2022-08-01T02:38:40;44.68;40.85;51.86;;
72858;Laerm;61360;52.134;4.494;2022-08-01T02:41:14;45.83;41.37;52.72;;
72858;Laerm;61360;52.134;4.494;2022-08-01T02:43:48;46.62;43.15;53.10;;
72858;Laerm;61360;52.134;4.494;2022-08-01T02:46:25;46.29;42.52;52.83;;
72858;Laerm;61360;52.134;4.494;2022-08-01T02:48:56;46.23;42.81;53.02;;
72858;Laerm;61360;52.134;4.494;2022-08-01T02:51:26;46.68;43.15;53.19;;
72858;Laerm;61360;52.134;4.494;2022-08-01T02:53:56;46.09;42.73;53.26;;
72858;Laerm;61360;52.134;4.494;2022-08-01T02:56:25;46.19;42.92;53.02;;
72858;Laerm;61360;52.134;4.494;2022-08-01T02:59:06;46.43;42.76;53.21;;
72858;Laerm;61360;52.134;4.494;2022-08-01T03:01:35;46.66;42.55;53.43;;
72858;Laerm;61360;52.134;4.494;2022-08-01T03:04:05;46.27;41.90;53.26;;
72858;Laerm;61360;52.134;4.494;2022-08-01T03:06:33;45.60;41.85;53.26;;
72858;Laerm;61360;52.134;4.494;2022-08-01T03:09:03;45.85;42.18;52.90;;
72858;Laerm;61360;52.134;4.494;2022-08-01T03:11:33;46.30;42.89;53.19;;
72858;Laerm;61360;52.134;4.494;2022-08-01T03:14:07;46.13;41.95;52.68;;
72858;Laerm;61360;52.134;4.494;2022-08-01T03:16:38;45.26;41.22;52.80;;
72858;Laerm;61360;52.134;4.494;2022-08-01T03:19:08;45.52;42.23;53.02;;
72858;Laerm;61360;52.134;4.494;2022-08-01T03:21:39;45.80;42.39;53.09;;
72858;Laerm;61360;52.134;4.494;2022-08-01T03:24:10;45.35;41.52;52.80;;
72858;Laerm;61360;52.134;4.494;2022-08-01T03:26:39;44.89;40.99;52.74;;
72858;Laerm;61360;52.134;4.494;2022-08-01T03:29:21;45.21;41.64;52.74;;
72858;Laerm;61360;52.134;4.494;2022-08-01T03:31:49;45.73;41.80;53.30;;
72858;Laerm;61360;52.134;4.494;2022-08-01T03:34:17;45.64;42.20;53.16;;
72858;Laerm;61360;52.134;4.494;2022-08-01T03:36:56;45.45;42.24;52.42;;
72858;Laerm;61360;52.134;4.494;2022-08-01T03:39:34;46.06;42.43;53.21;;
72858;Laerm;61360;52.134;4.494;2022-08-01T03:42:16;45.90;42.17;52.51;;
72858;Laerm;61360;52.134;4.494;2022-08-01T03:44:53;45.26;41.80;52.77;;
72858;Laerm;61360;52.134;4.494;2022-08-01T03:47:26;45.31;41.16;52.85;;
72858;Laerm;61360;52.134;4.494;2022-08-01T03:49:57;45.67;42.07;52.72;;
72858;Laerm;61360;52.134;4.494;2022-08-01T03:52:27;45.57;41.76;52.94;;
72858;Laerm;61360;52.134;4.494;2022-08-01T03:54:59;46.00;42.32;58.78;;
72858;Laerm;61360;52.134;4.494;2022-08-01T03:57:29;45.03;41.64;52.48;;
72858;Laerm;61360;52.134;4.494;2022-08-01T03:59:59;45.86;42.34;52.87;;
72858;Laerm;61360;52.134;4.494;2022-08-01T04:02:28;45.38;42.05;52.18;;
72858;Laerm;61360;52.134;4.494;2022-08-01T04:04:55;44.66;40.48;52.48;;
72858;Laerm;61360;52.134;4.494;2022-08-01T04:07:31;44.83;40.89;52.81;;
72858;Laerm;61360;52.134;4.494;2022-08-01T04:09:58;44.76;41.05;51.96;;
72858;Laerm;61360;52.134;4.494;2022-08-01T04:12:24;44.74;41.28;51.36;;
72858;Laerm;61360;52.134;4.494;2022-08-01T04:14:51;44.61;41.45;52.47;;
72858;Laerm;61360;52.134;4.494;2022-08-01T04:17:18;44.85;41.57;52.94;;
72858;Laerm;61360;52.134;4.494;2022-08-01T04:19:45;45.03;41.60;52.50;;
72858;Laerm;61360;52.134;4.494;2022-08-01T04:22:14;45.26;41.45;52.28;;
72858;Laerm;61360;52.134;4.494;2022-08-01T04:24:47;44.65;40.63;52.00;;
72858;Laerm;61360;52.134;4.494;2022-08-01T04:27:23;45.37;41.55;51.85;;
72858;Laerm;61360;52.134;4.494;2022-08-01T04:29:54;46.43;41.82;53.59;;
72858;Laerm;61360;52.134;4.494;2022-08-01T04:32:25;45.98;41.82;52.88;;
72858;Laerm;61360;52.134;4.494;2022-08-01T04:34:56;45.93;41.69;54.80;;
72858;Laerm;61360;52.134;4.494;2022-08-01T04:37:27;46.49;42.05;52.92;;
72858;Laerm;61360;52.134;4.494;2022-08-01T04:39:58;45.58;41.38;52.86;;
72858;Laerm;61360;52.134;4.494;2022-08-01T04:42:25;45.04;41.27;52.89;;
72858;Laerm;61360;52.134;4.494;2022-08-01T04:44:53;46.42;41.96;52.99;;
72858;Laerm;61360;52.134;4.494;2022-08-01T04:47:21;45.88;41.07;52.75;;
72858;Laerm;61360;52.134;4.494;2022-08-01T04:49:49;45.83;41.35;53.57;;
72858;Laerm;61360;52.134;4.494;2022-08-01T04:52:16;45.09;41.06;53.05;;
72858;Laerm;61360;52.134;4.494;2022-08-01T04:54:44;45.42;41.76;52.70;;
72858;Laerm;61360;52.134;4.494;2022-08-01T04:57:10;44.94;40.74;53.44;;
72858;Laerm;61360;52.134;4.494;2022-08-01T04:59:42;45.72;40.83;53.17;;
72858;Laerm;61360;52.134;4.494;2022-08-01T05:02:15;46.09;41.60;52.89;;
72858;Laerm;61360;52.134;4.494;2022-08-01T05:04:44;45.63;41.05;52.72;;
72858;Laerm;61360;52.134;4.494;2022-08-01T05:07:12;46.42;41.88;53.02;;
72858;Laerm;61360;52.134;4.494;2022-08-01T05:09:40;45.53;40.25;53.35;;
72858;Laerm;61360;52.134;4.494;2022-08-01T05:12:12;45.24;41.02;53.44;;
72858;Laerm;61360;52.134;4.494;2022-08-01T05:14:39;44.90;40.32;53.77;;
72858;Laerm;61360;52.134;4.494;2022-08-01T05:17:08;45.90;41.12;53.41;;
72858;Laerm;61360;52.134;4.494;2022-08-01T05:19:37;47.17;42.74;53.69;;
72858;Laerm;61360;52.134;4.494;2022-08-01T05:22:06;46.96;42.50;53.06;;
72858;Laerm;61360;52.134;4.494;2022-08-01T05:24:37;46.45;42.61;53.04;;
72858;Laerm;61360;52.134;4.494;2022-08-01T05:27:04;46.66;42.85;53.23;;
72858;Laerm;61360;52.134;4.494;2022-08-01T05:29:32;47.16;41.84;53.51;;
72858;Laerm;61360;52.134;4.494;2022-08-01T05:31:59;46.57;43.11;53.07;;
72858;Laerm;61360;52.134;4.494;2022-08-01T05:34:27;46.85;42.17;52.95;;
72858;Laerm;61360;52.134;4.494;2022-08-01T05:36:53;46.63;42.54;53.39;;
72858;Laerm;61360;52.134;4.494;2022-08-01T05:39:20;46.08;41.88;53.05;;
72858;Laerm;61360;52.134;4.494;2022-08-01T05:41:46;46.45;42.38;52.95;;
72858;Laerm;61360;52.134;4.494;2022-08-01T05:44:13;46.78;42.84;52.42;;
72858;Laerm;61360;52.134;4.494;2022-08-01T05:46:39;47.17;43.00;53.75;;
72858;Laerm;61360;52.134;4.494;2022-08-01T05:49:06;47.00;42.77;53.26;;
72858;Laerm;61360;52.134;4.494;2022-08-01T05:51:33;45.15;41.10;52.11;;
72858;Laerm;61360;52.134;4.494;2022-08-01T05:53:59;44.94;41.38;52.21;;
72858;Laerm;61360;52.134;4.494;2022-08-01T05:56:26;45.63;41.80;52.32;;
72858;Laerm;61360;52.134;4.494;2022-08-01T05:58:53;46.71;41.90;53.24;;
72858;Laerm;61360;52.134;4.494;2022-08-01T06:01:19;46.79;42.87;52.57;;
72858;Laerm;61360;52.134;4.494;2022-08-01T06:03:46;46.44;42.49;52.92;;
72858;Laerm;61360;52.134;4.494;2022-08-01T06:06:13;46.69;42.84;52.79;;
72858;Laerm;61360;52.134;4.494;2022-08-01T06:08:40;46.77;41.80;53.02;;
72858;Laerm;61360;52.134;4.494;2022-08-01T06:11:07;46.28;42.08;53.07;;
72858;Laerm;61360;52.134;4.494;2022-08-01T06:13:34;46.88;42.53;52.65;;
72858;Laerm;61360;52.134;4.494;2022-08-01T06:16:00;46.86;42.74;53.36;;
72858;Laerm;61360;52.134;4.494;2022-08-01T06:18:27;47.47;43.00;53.54;;
72858;Laerm;61360;52.134;4.494;2022-08-01T06:20:53;47.04;41.74;54.00;;
72858;Laerm;61360;52.134;4.494;2022-08-01T06:23:21;47.08;42.46;52.91;;
72858;Laerm;61360;52.134;4.494;2022-08-01T06:25:51;47.33;42.37;53.28;;
72858;Laerm;61360;52.134;4.494;2022-08-01T06:28:18;47.35;42.39;54.03;;
72858;Laerm;61360;52.134;4.494;2022-08-01T06:30:44;46.80;42.50;52.67;;
72858;Laerm;61360;52.134;4.494;2022-08-01T06:33:11;46.42;42.39;54.07;;
72858;Laerm;61360;52.134;4.494;2022-08-01T06:35:38;47.28;42.83;53.47;;
72858;Laerm;61360;52.134;4.494;2022-08-01T06:38:04;46.51;42.50;58.38;;
72858;Laerm;61360;52.134;4.494;2022-08-01T06:40:30;46.80;42.96;53.41;;
72858;Laerm;61360;52.134;4.494;2022-08-01T06:42:57;47.10;43.49;53.45;;
72858;Laerm;61360;52.134;4.494;2022-08-01T06:45:23;47.55;43.36;53.13;;
72858;Laerm;61360;52.134;4.494;2022-08-01T06:47:52;47.66;43.79;53.20;;
72858;Laerm;61360;52.134;4.494;2022-08-01T06:50:19;46.56;42.58;52.43;;
72858;Laerm;61360;52.134;4.494;2022-08-01T06:52:45;46.92;43.18;53.41;;
72858;Laerm;61360;52.134;4.494;2022-08-01T06:55:12;46.85;43.02;52.81;;
72858;Laerm;61360;52.134;4.494;2022-08-01T06:57:51;46.86;42.84;53.00;;
72858;Laerm;61360;52.134;4.494;2022-08-01T07:00:20;47.38;42.75;54.15;;
72858;Laerm;61360;52.134;4.494;2022-08-01T07:02:55;46.59;41.92;53.45;;
72858;Laerm;61360;52.134;4.494;2022-08-01T07:05:23;46.68;42.87;52.61;;
72858;Laerm;61360;52.134;4.494;2022-08-01T07:07:50;47.79;43.33;53.89;;
72858;Laerm;61360;52.134;4.494;2022-08-01T07:10:17;47.21;43.56;52.93;;
72858;Laerm;61360;52.134;4.494;2022-08-01T07:12:46;47.33;43.54;53.54;;
72858;Laerm;61360;52.134;4.494;2022-08-01T07:15:12;47.19;43.60;53.37;;
72858;Laerm;61360;52.134;4.494;2022-08-01T07:17:41;47.00;43.24;52.56;;
72858;Laerm;61360;52.134;4.494;2022-08-01T07:20:11;46.79;42.82;53.05;;
72858;Laerm;61360;52.134;4.494;2022-08-01T07:22:39;46.90;43.35;53.23;;
72858;Laerm;61360;52.134;4.494;2022-08-01T07:25:06;47.00;43.84;52.62;;
72858;Laerm;61360;52.134;4.494;2022-08-01T07:27:34;46.72;43.36;53.25;;
72858;Laerm;61360;52.134;4.494;2022-08-01T07:30:04;47.98;44.46;54.43;;
72858;Laerm;61360;52.134;4.494;2022-08-01T07:32:32;47.62;44.88;52.74;;
72858;Laerm;61360;52.134;4.494;2022-08-01T07:34:59;48.07;44.84;52.89;;
72858;Laerm;61360;52.134;4.494;2022-08-01T07:37:27;47.53;44.57;53.65;;
72858;Laerm;61360;52.134;4.494;2022-08-01T07:39:54;48.43;44.63;53.41;;
72858;Laerm;61360;52.134;4.494;2022-08-01T07:42:20;48.86;45.46;53.62;;
72858;Laerm;61360;52.134;4.494;2022-08-01T07:44:50;48.24;44.63;53.03;;
72858;Laerm;61360;52.134;4.494;2022-08-01T07:47:24;48.60;44.27;54.18;;
72858;Laerm;61360;52.134;4.494;2022-08-01T07:49:51;49.24;44.73;53.87;;
72858;Laerm;61360;52.134;4.494;2022-08-01T07:52:18;49.86;46.19;54.94;;
72858;Laerm;61360;52.134;4.494;2022-08-01T07:54:45;49.93;45.89;54.22;;
72858;Laerm;61360;52.134;4.494;2022-08-01T07:57:12;49.75;46.17;53.40;;
72858;Laerm;61360;52.134;4.494;2022-08-01T07:59:38;50.63;47.12;54.39;;
72858;Laerm;61360;52.134;4.494;2022-08-01T08:02:05;50.38;47.14;54.03;;
72858;Laerm;61360;52.134;4.494;2022-08-01T08:04:32;51.06;47.63;54.37;;
72858;Laerm;61360;52.134;4.494;2022-08-01T08:06:58;50.71;47.88;53.97;;
72858;Laerm;61360;52.134;4.494;2022-08-01T08:09:25;51.15;47.34;55.85;;
72858;Laerm;61360;52.134;4.494;2022-08-01T08:11:52;50.81;47.30;54.83;;
72858;Laerm;61360;52.134;4.494;2022-08-01T08:14:19;51.00;47.73;55.04;;
72858;Laerm;61360;52.134;4.494;2022-08-01T08:16:50;50.86;46.88;54.68;;
72858;Laerm;61360;52.134;4.494;2022-08-01T08:19:18;50.79;47.00;53.97;;
72858;Laerm;61360;52.134;4.494;2022-08-01T08:21:44;50.16;46.99;53.64;;
72858;Laerm;61360;52.134;4.494;2022-08-01T08:24:11;50.66;46.94;55.20;;
72858;Laerm;61360;52.134;4.494;2022-08-01T08:26:48;50.69;47.28;54.86;;
72858;Laerm;61360;52.134;4.494;2022-08-01T08:29:17;50.43;47.35;53.87;;
72858;Laerm;61360;52.134;4.494;2022-08-01T08:31:44;51.30;47.43;55.15;;
72858;Laerm;61360;52.134;4.494;2022-08-01T08:34:12;52.14;48.66;55.61;;
72858;Laerm;61360;52.134;4.494;2022-08-01T08:36:38;51.35;48.05;54.72;;
72858;Laerm;61360;52.134;4.494;2022-08-01T08:39:06;52.56;49.19;55.50;;
72858;Laerm;61360;52.134;4.494;2022-08-01T08:41:34;52.48;49.10;55.55;;
72858;Laerm;61360;52.134;4.494;2022-08-01T08:44:07;53.26;50.21;57.05;;
72858;Laerm;61360;52.134;4.494;2022-08-01T08:46:48;53.19;49.70;57.02;;
72858;Laerm;61360;52.134;4.494;2022-08-01T08:49:20;52.53;48.66;56.87;;
72858;Laerm;61360;52.134;4.494;2022-08-01T08:51:50;53.16;49.75;56.61;;
72858;Laerm;61360;52.134;4.494;2022-08-01T08:54:22;53.43;49.83;56.97;;
72858;Laerm;61360;52.134;4.494;2022-08-01T08:56:52;53.22;49.58;57.40;;
72858;Laerm;61360;52.134;4.494;2022-08-01T08:59:21;53.85;50.13;57.55;;
72858;Laerm;61360;52.134;4.494;2022-08-01T09:01:48;53.84;49.97;57.58;;
72858;Laerm;61360;52.134;4.494;2022-08-01T09:04:15;53.69;50.20;57.06;;
72858;Laerm;61360;52.134;4.494;2022-08-01T09:06:42;53.17;50.23;56.51;;
72858;Laerm;61360;52.134;4.494;2022-08-01T09:09:09;52.98;49.89;56.65;;
72858;Laerm;61360;52.134;4.494;2022-08-01T09:11:37;53.47;50.03;57.35;;
72858;Laerm;61360;52.134;4.494;2022-08-01T09:14:18;52.57;49.53;56.33;;
72858;Laerm;61360;52.134;4.494;2022-08-01T09:17:09;53.38;49.88;57.99;;
72858;Laerm;61360;52.134;4.494;2022-08-01T09:19:47;53.93;49.99;58.08;;
72858;Laerm;61360;52.134;4.494;2022-08-01T09:22:18;53.41;50.26;56.80;;
72858;Laerm;61360;52.134;4.494;2022-08-01T09:25:10;53.30;50.06;56.71;;
72858;Laerm;61360;52.134;4.494;2022-08-01T09:27:38;53.70;49.84;57.22;;
72858;Laerm;61360;52.134;4.494;2022-08-01T09:30:17;53.39;50.01;58.02;;
72858;Laerm;61360;52.134;4.494;2022-08-01T09:32:59;53.25;50.05;56.76;;
72858;Laerm;61360;52.134;4.494;2022-08-01T09:35:33;53.05;49.55;56.77;;
72858;Laerm;61360;52.134;4.494;2022-08-01T09:38:18;53.40;49.64;57.94;;
72858;Laerm;61360;52.134;4.494;2022-08-01T09:40:55;53.79;50.45;57.25;;
72858;Laerm;61360;52.134;4.494;2022-08-01T09:43:26;53.50;50.68;57.04;;
72858;Laerm;61360;52.134;4.494;2022-08-01T09:45:54;54.30;50.81;57.72;;
72858;Laerm;61360;52.134;4.494;2022-08-01T09:48:21;52.44;48.81;55.89;;
72858;Laerm;61360;52.134;4.494;2022-08-01T09:50:52;51.90;49.33;56.80;;
72858;Laerm;61360;52.134;4.494;2022-08-01T09:53:19;52.79;49.86;56.74;;
72858;Laerm;61360;52.134;4.494;2022-08-01T09:55:46;52.17;48.64;57.02;;
72858;Laerm;61360;52.134;4.494;2022-08-01T09:58:12;52.21;49.12;55.44;;
72858;Laerm;61360;52.134;4.494;2022-08-01T10:00:39;52.95;49.37;57.12;;
72858;Laerm;61360;52.134;4.494;2022-08-01T10:03:26;53.27;49.62;57.03;;
72858;Laerm;61360;52.134;4.494;2022-08-01T10:05:53;52.92;50.01;55.70;;
72858;Laerm;61360;52.134;4.494;2022-08-01T10:08:20;52.69;49.24;57.18;;
72858;Laerm;61360;52.134;4.494;2022-08-01T10:11:10;52.59;49.64;57.08;;
72858;Laerm;61360;52.134;4.494;2022-08-01T10:13:38;52.43;49.70;56.36;;
72858;Laerm;61360;52.134;4.494;2022-08-01T10:16:06;53.11;50.20;56.03;;
72858;Laerm;61360;52.134;4.494;2022-08-01T10:18:35;52.16;49.20;56.76;;
72858;Laerm;61360;52.134;4.494;2022-08-01T10:21:03;52.36;49.36;58.03;;
72858;Laerm;61360;52.134;4.494;2022-08-01T10:23:35;52.47;49.56;56.60;;
72858;Laerm;61360;52.134;4.494;2022-08-01T10:26:05;52.64;49.04;56.90;;
72858;Laerm;61360;52.134;4.494;2022-08-01T10:28:36;52.08;49.06;55.45;;
72858;Laerm;61360;52.134;4.494;2022-08-01T10:31:05;52.45;48.76;55.96;;
72858;Laerm;61360;52.134;4.494;2022-08-01T10:33:33;52.24;49.18;55.62;;
72858;Laerm;61360;52.134;4.494;2022-08-01T10:36:04;52.27;49.33;55.47;;
72858;Laerm;61360;52.134;4.494;2022-08-01T10:38:31;52.16;49.05;54.88;;
72858;Laerm;61360;52.134;4.494;2022-08-01T10:41:02;52.76;49.37;56.51;;
72858;Laerm;61360;52.134;4.494;2022-08-01T10:43:29;53.26;49.45;57.20;;
72858;Laerm;61360;52.134;4.494;2022-08-01T10:45:57;53.08;50.15;57.00;;
72858;Laerm;61360;52.134;4.494;2022-08-01T10:48:35;52.68;49.13;56.45;;
72858;Laerm;61360;52.134;4.494;2022-08-01T10:51:07;52.18;48.90;57.64;;
72858;Laerm;61360;52.134;4.494;2022-08-01T10:53:35;52.57;48.68;56.88;;
72858;Laerm;61360;52.134;4.494;2022-08-01T10:56:04;52.92;49.15;57.06;;
72858;Laerm;61360;52.134;4.494;2022-08-01T10:58:35;52.26;48.75;56.97;;
72858;Laerm;61360;52.134;4.494;2022-08-01T11:01:25;54.26;50.24;59.46;;
72858;Laerm;61360;52.134;4.494;2022-08-01T11:12:03;52.73;49.12;56.69;;
72858;Laerm;61360;52.134;4.494;2022-08-01T11:14:33;52.86;49.30;57.28;;
72858;Laerm;61360;52.134;4.494;2022-08-01T11:17:42;51.86;48.80;55.34;;
72858;Laerm;61360;52.134;4.494;2022-08-01T11:20:16;51.87;48.39;57.55;;
72858;Laerm;61360;52.134;4.494;2022-08-01T11:26:12;52.28;49.12;56.27;;
72858;Laerm;61360;52.134;4.494;2022-08-01T11:30:42;53.18;49.23;56.77;;
72858;Laerm;61360;52.134;4.494;2022-08-01T11:33:10;53.36;50.21;58.10;;
72858;Laerm;61360;52.134;4.494;2022-08-01T11:35:37;53.18;49.57;58.34;;
72858;Laerm;61360;52.134;4.494;2022-08-01T11:38:26;53.18;49.46;57.06;;
72858;Laerm;61360;52.134;4.494;2022-08-01T11:41:32;52.07;49.09;56.28;;
72858;Laerm;61360;52.134;4.494;2022-08-01T11:44:14;52.55;48.84;56.09;;
72858;Laerm;61360;52.134;4.494;2022-08-01T11:46:58;52.62;48.92;57.40;;
72858;Laerm;61360;52.134;4.494;2022-08-01T11:49:53;53.27;49.99;57.24;;
72858;Laerm;61360;52.134;4.494;2022-08-01T11:52:30;53.83;50.19;59.75;;
72858;Laerm;61360;52.134;4.494;2022-08-01T11:55:07;53.44;49.66;57.89;;
72858;Laerm;61360;52.134;4.494;2022-08-01T11:57:35;54.15;49.76;58.00;;
72858;Laerm;61360;52.134;4.494;2022-08-01T12:00:16;53.23;49.99;56.97;;
72858;Laerm;61360;52.134;4.494;2022-08-01T12:02:46;53.32;50.16;56.46;;
72858;Laerm;61360;52.134;4.494;2022-08-01T12:05:16;53.62;50.03;56.73;;
72858;Laerm;61360;52.134;4.494;2022-08-01T12:07:51;52.98;48.94;65.54;;
72858;Laerm;61360;52.134;4.494;2022-08-01T12:10:20;53.90;50.45;58.90;;
72858;Laerm;61360;52.134;4.494;2022-08-01T12:12:51;56.29;54.01;59.25;;
72858;Laerm;61360;52.134;4.494;2022-08-01T12:15:22;56.44;53.71;59.02;;
72858;Laerm;61360;52.134;4.494;2022-08-01T12:17:57;56.99;54.52;59.79;;
72858;Laerm;61360;52.134;4.494;2022-08-01T12:20:29;56.09;53.29;59.63;;
72858;Laerm;61360;52.134;4.494;2022-08-01T12:23:08;56.64;53.53;60.17;;
72858;Laerm;61360;52.134;4.494;2022-08-01T12:25:36;56.46;53.49;59.27;;
72858;Laerm;61360;52.134;4.494;2022-08-01T12:28:07;56.41;53.61;60.52;;
72858;Laerm;61360;52.134;4.494;2022-08-01T12:30:36;56.14;53.44;59.38;;
72858;Laerm;61360;52.134;4.494;2022-08-01T12:33:07;55.97;51.05;58.33;;
72858;Laerm;61360;52.134;4.494;2022-08-01T12:35:36;55.85;53.05;58.20;;
72858;Laerm;61360;52.134;4.494;2022-08-01T12:38:13;55.64;53.12;58.65;;
72858;Laerm;61360;52.134;4.494;2022-08-01T12:40:43;56.40;52.45;58.94;;
72858;Laerm;61360;52.134;4.494;2022-08-01T12:43:16;56.73;52.54;59.66;;
72858;Laerm;61360;52.134;4.494;2022-08-01T12:45:44;55.81;51.20;58.73;;
72858;Laerm;61360;52.134;4.494;2022-08-01T12:48:14;56.20;51.63;59.10;;
72858;Laerm;61360;52.134;4.494;2022-08-01T12:50:46;56.24;50.96;58.99;;
72858;Laerm;61360;52.134;4.494;2022-08-01T12:53:15;56.10;51.35;59.30;;
72858;Laerm;61360;52.134;4.494;2022-08-01T12:55:49;55.03;50.85;59.03;;
72858;Laerm;61360;52.134;4.494;2022-08-01T12:58:18;53.80;50.77;57.01;;
72858;Laerm;61360;52.134;4.494;2022-08-01T13:00:48;54.47;51.36;59.75;;
72858;Laerm;61360;52.134;4.494;2022-08-01T13:03:19;55.12;51.95;58.92;;
72858;Laerm;61360;52.134;4.494;2022-08-01T13:05:56;55.51;52.25;59.25;;
72858;Laerm;61360;52.134;4.494;2022-08-01T13:08:34;55.15;52.49;59.32;;
72858;Laerm;61360;52.134;4.494;2022-08-01T13:11:04;54.84;50.63;58.44;;
72858;Laerm;61360;52.134;4.494;2022-08-01T13:16:18;54.33;51.33;59.13;;
72858;Laerm;61360;52.134;4.494;2022-08-01T13:18:51;53.75;49.06;57.89;;
72858;Laerm;61360;52.134;4.494;2022-08-01T13:21:30;54.29;51.11;58.12;;
72858;Laerm;61360;52.134;4.494;2022-08-01T13:24:10;54.60;51.81;57.91;;
72858;Laerm;61360;52.134;4.494;2022-08-01T13:29:10;54.69;50.76;58.63;;
72858;Laerm;61360;52.134;4.494;2022-08-01T13:31:38;55.05;52.01;58.78;;
72858;Laerm;61360;52.134;4.494;2022-08-01T13:34:06;54.74;51.46;58.24;;
72858;Laerm;61360;52.134;4.494;2022-08-01T13:36:33;54.62;51.02;59.17;;
72858;Laerm;61360;52.134;4.494;2022-08-01T13:39:01;53.80;50.52;57.48;;
72858;Laerm;61360;52.134;4.494;2022-08-01T13:41:47;54.18;50.06;59.34;;
72858;Laerm;61360;52.134;4.494;2022-08-01T13:44:14;54.62;50.51;58.33;;
72858;Laerm;61360;52.134;4.494;2022-08-01T13:46:43;54.38;51.21;58.81;;
72858;Laerm;61360;52.134;4.494;2022-08-01T13:49:11;53.99;50.67;58.21;;
72858;Laerm;61360;52.134;4.494;2022-08-01T13:51:38;54.27;51.10;58.01;;
72858;Laerm;61360;52.134;4.494;2022-08-01T13:54:06;54.05;50.47;58.81;;
72858;Laerm;61360;52.134;4.494;2022-08-01T13:56:34;54.44;50.04;59.42;;
72858;Laerm;61360;52.134;4.494;2022-08-01T13:59:01;54.37;49.61;60.44;;
72858;Laerm;61360;52.134;4.494;2022-08-01T14:01:28;54.39;49.01;59.41;;
72858;Laerm;61360;52.134;4.494;2022-08-01T14:03:54;53.77;49.08;58.61;;
72858;Laerm;61360;52.134;4.494;2022-08-01T14:06:21;54.23;49.71;58.79;;
72858;Laerm;61360;52.134;4.494;2022-08-01T14:08:48;54.87;49.65;59.80;;
72858;Laerm;61360;52.134;4.494;2022-08-01T14:11:16;54.67;49.83;60.59;;
72858;Laerm;61360;52.134;4.494;2022-08-01T14:13:43;54.54;49.35;59.60;;
72858;Laerm;61360;52.134;4.494;2022-08-01T14:16:10;53.03;49.31;57.96;;
72858;Laerm;61360;52.134;4.494;2022-08-01T14:18:37;53.23;49.71;57.23;;
72858;Laerm;61360;52.134;4.494;2022-08-01T14:21:04;54.23;49.56;58.89;;
72858;Laerm;61360;52.134;4.494;2022-08-01T14:23:32;53.73;49.68;58.78;;
72858;Laerm;61360;52.134;4.494;2022-08-01T14:25:59;53.98;50.63;58.51;;
72858;Laerm;61360;52.134;4.494;2022-08-01T14:28:26;53.41;49.93;56.78;;
72858;Laerm;61360;52.134;4.494;2022-08-01T14:30:54;54.07;50.08;59.36;;
72858;Laerm;61360;52.134;4.494;2022-08-01T14:33:26;53.93;49.88;58.36;;